sensor_id;sensor_type;location;lat;lon;timestamp;P1;durP1;ratioP1;P2;durP2;ratioP2
77105;SDS011;66057;54.718;18.426;2023-04-15T00:01:15;29.23;;;17.58;;
77105;SDS011;66057;54.718;18.426;2023-04-15T00:03:43;25.85;;;17.27;;
77105;SDS011;66057;54.718;18.426;2023-04-15T00:06:09;29.95;;;19.05;;
77105;SDS011;66057;54.718;18.426;2023-04-15T00:08:35;27.38;;;16.65;;
77105;SDS011;66057;54.718;18.426;2023-04-15T00:11:01;25.83;;;16.50;;
77105;SDS011;66057;54.718;18.426;2023-04-15T00:13:30;28.23;;;17.52;;
77105;SDS011;66057;54.718;18.426;2023-04-15T00:16:04;28.27;;;17.17;;
77105;SDS011;66057;54.718;18.426;2023-04-15T00:18:36;28.23;;;16.85;;
77105;SDS011;66057;54.718;18.426;2023-04-15T00:21:02;26.35;;;16.13;;
77105;SDS011;66057;54.718;18.426;2023-04-15T00:23:30;25.42;;;15.82;;
77105;SDS011;66057;54.718;18.426;2023-04-15T00:26:01;28.80;;;16.67;;
77105;SDS011;66057;54.718;18.426;2023-04-15T00:28:26;24.58;;;15.73;;
77105;SDS011;66057;54.718;18.426;2023-04-15T00:30:52;27.15;;;17.10;;
77105;SDS011;66057;54.718;18.426;2023-04-15T00:33:18;26.58;;;16.77;;
77105;SDS011;66057;54.718;18.426;2023-04-15T00:35:44;28.73;;;16.65;;
77105;SDS011;66057;54.718;18.426;2023-04-15T00:38:09;32.60;;;17.55;;
77105;SDS011;66057;54.718;18.426;2023-04-15T00:40:36;29.52;;;16.88;;
77105;SDS011;66057;54.718;18.426;2023-04-15T00:43:02;26.98;;;16.70;;
77105;SDS011;66057;54.718;18.426;2023-04-15T00:45:28;30.42;;;17.80;;
77105;SDS011;66057;54.718;18.426;2023-04-15T00:47:54;26.98;;;17.15;;
77105;SDS011;66057;54.718;18.426;2023-04-15T00:50:20;30.77;;;17.52;;
77105;SDS011;66057;54.718;18.426;2023-04-15T00:52:48;32.33;;;17.25;;
77105;SDS011;66057;54.718;18.426;2023-04-15T00:55:14;31.08;;;17.80;;
77105;SDS011;66057;54.718;18.426;2023-04-15T00:57:40;25.13;;;16.50;;
77105;SDS011;66057;54.718;18.426;2023-04-15T01:00:06;29.83;;;17.33;;
77105;SDS011;66057;54.718;18.426;2023-04-15T01:02:33;27.27;;;15.57;;
77105;SDS011;66057;54.718;18.426;2023-04-15T01:05:00;29.05;;;16.48;;
77105;SDS011;66057;54.718;18.426;2023-04-15T01:07:28;28.80;;;18.08;;
77105;SDS011;66057;54.718;18.426;2023-04-15T01:09:54;28.48;;;17.52;;
77105;SDS011;66057;54.718;18.426;2023-04-15T01:12:19;29.02;;;17.85;;
77105;SDS011;66057;54.718;18.426;2023-04-15T01:14:45;26.77;;;16.48;;
77105;SDS011;66057;54.718;18.426;2023-04-15T01:17:11;29.75;;;17.85;;
77105;SDS011;66057;54.718;18.426;2023-04-15T01:19:37;29.17;;;16.75;;
77105;SDS011;66057;54.718;18.426;2023-04-15T01:22:03;31.13;;;16.63;;
77105;SDS011;66057;54.718;18.426;2023-04-15T01:24:32;28.48;;;16.67;;
77105;SDS011;66057;54.718;18.426;2023-04-15T01:26:59;28.48;;;18.25;;
77105;SDS011;66057;54.718;18.426;2023-04-15T01:29:25;26.35;;;17.95;;
77105;SDS011;66057;54.718;18.426;2023-04-15T01:31:52;28.20;;;17.20;;
77105;SDS011;66057;54.718;18.426;2023-04-15T01:34:19;30.10;;;17.02;;
77105;SDS011;66057;54.718;18.426;2023-04-15T01:36:45;27.52;;;16.67;;
77105;SDS011;66057;54.718;18.426;2023-04-15T01:39:11;25.90;;;17.60;;
77105;SDS011;66057;54.718;18.426;2023-04-15T01:41:37;23.95;;;15.98;;
77105;SDS011;66057;54.718;18.426;2023-04-15T01:44:02;26.60;;;17.40;;
77105;SDS011;66057;54.718;18.426;2023-04-15T01:46:28;23.85;;;15.68;;
77105;SDS011;66057;54.718;18.426;2023-04-15T01:48:54;28.52;;;16.20;;
77105;SDS011;66057;54.718;18.426;2023-04-15T01:51:19;24.92;;;16.05;;
77105;SDS011;66057;54.718;18.426;2023-04-15T01:53:46;23.95;;;14.65;;
77105;SDS011;66057;54.718;18.426;2023-04-15T01:56:11;25.02;;;16.08;;
77105;SDS011;66057;54.718;18.426;2023-04-15T01:58:37;31.08;;;16.58;;
77105;SDS011;66057;54.718;18.426;2023-04-15T02:03:30;27.90;;;16.92;;
77105;SDS011;66057;54.718;18.426;2023-04-15T02:05:56;35.33;;;18.92;;
77105;SDS011;66057;54.718;18.426;2023-04-15T02:08:22;33.92;;;18.38;;
77105;SDS011;66057;54.718;18.426;2023-04-15T02:10:47;32.55;;;19.38;;
77105;SDS011;66057;54.718;18.426;2023-04-15T02:13:13;30.30;;;18.15;;
77105;SDS011;66057;54.718;18.426;2023-04-15T02:15:39;32.75;;;20.23;;
77105;SDS011;66057;54.718;18.426;2023-04-15T02:18:04;32.50;;;19.35;;
77105;SDS011;66057;54.718;18.426;2023-04-15T02:20:30;30.90;;;20.20;;
77105;SDS011;66057;54.718;18.426;2023-04-15T02:22:56;32.58;;;19.30;;
77105;SDS011;66057;54.718;18.426;2023-04-15T02:25:22;32.70;;;21.27;;
77105;SDS011;66057;54.718;18.426;2023-04-15T02:27:47;32.45;;;20.98;;
77105;SDS011;66057;54.718;18.426;2023-04-15T02:30:13;29.33;;;19.25;;
77105;SDS011;66057;54.718;18.426;2023-04-15T02:32:39;34.97;;;20.38;;
77105;SDS011;66057;54.718;18.426;2023-04-15T02:35:06;30.98;;;18.90;;
77105;SDS011;66057;54.718;18.426;2023-04-15T02:37:34;31.90;;;19.52;;
77105;SDS011;66057;54.718;18.426;2023-04-15T02:40:13;28.98;;;17.65;;
77105;SDS011;66057;54.718;18.426;2023-04-15T02:42:40;31.60;;;19.38;;
77105;SDS011;66057;54.718;18.426;2023-04-15T02:45:07;30.92;;;19.30;;
77105;SDS011;66057;54.718;18.426;2023-04-15T02:47:35;30.27;;;19.15;;
77105;SDS011;66057;54.718;18.426;2023-04-15T02:50:05;29.75;;;18.35;;
77105;SDS011;66057;54.718;18.426;2023-04-15T02:52:36;31.20;;;17.30;;
77105;SDS011;66057;54.718;18.426;2023-04-15T02:55:05;32.30;;;18.05;;
77105;SDS011;66057;54.718;18.426;2023-04-15T02:57:32;28.63;;;18.52;;
77105;SDS011;66057;54.718;18.426;2023-04-15T02:59:59;29.63;;;16.25;;
77105;SDS011;66057;54.718;18.426;2023-04-15T03:02:25;27.27;;;16.85;;
77105;SDS011;66057;54.718;18.426;2023-04-15T03:04:50;26.55;;;18.38;;
77105;SDS011;66057;54.718;18.426;2023-04-15T03:07:16;26.85;;;16.48;;
77105;SDS011;66057;54.718;18.426;2023-04-15T03:09:42;33.47;;;19.50;;
77105;SDS011;66057;54.718;18.426;2023-04-15T03:12:08;28.13;;;14.48;;
77105;SDS011;66057;54.718;18.426;2023-04-15T03:14:34;25.52;;;16.80;;
77105;SDS011;66057;54.718;18.426;2023-04-15T03:17:00;33.08;;;17.23;;
77105;SDS011;66057;54.718;18.426;2023-04-15T03:19:25;29.10;;;17.40;;
77105;SDS011;66057;54.718;18.426;2023-04-15T03:21:51;28.95;;;17.67;;
77105;SDS011;66057;54.718;18.426;2023-04-15T03:24:17;28.73;;;17.45;;
77105;SDS011;66057;54.718;18.426;2023-04-15T03:26:42;29.40;;;18.02;;
77105;SDS011;66057;54.718;18.426;2023-04-15T03:29:08;26.48;;;18.05;;
77105;SDS011;66057;54.718;18.426;2023-04-15T03:31:35;23.90;;;16.73;;
77105;SDS011;66057;54.718;18.426;2023-04-15T03:34:01;27.52;;;18.08;;
77105;SDS011;66057;54.718;18.426;2023-04-15T03:36:27;29.92;;;17.50;;
77105;SDS011;66057;54.718;18.426;2023-04-15T03:38:57;27.48;;;15.98;;
77105;SDS011;66057;54.718;18.426;2023-04-15T03:41:23;24.17;;;16.80;;
77105;SDS011;66057;54.718;18.426;2023-04-15T03:43:48;23.13;;;15.00;;
77105;SDS011;66057;54.718;18.426;2023-04-15T03:46:16;25.55;;;16.48;;
77105;SDS011;66057;54.718;18.426;2023-04-15T03:48:42;29.35;;;17.92;;
77105;SDS011;66057;54.718;18.426;2023-04-15T03:51:08;26.27;;;16.40;;
77105;SDS011;66057;54.718;18.426;2023-04-15T03:53:37;28.63;;;16.90;;
77105;SDS011;66057;54.718;18.426;2023-04-15T03:56:02;28.38;;;17.80;;
77105;SDS011;66057;54.718;18.426;2023-04-15T03:58:28;28.23;;;16.15;;
77105;SDS011;66057;54.718;18.426;2023-04-15T04:00:54;28.27;;;17.38;;
77105;SDS011;66057;54.718;18.426;2023-04-15T04:03:19;26.42;;;16.60;;
77105;SDS011;66057;54.718;18.426;2023-04-15T04:05:45;24.88;;;17.48;;
77105;SDS011;66057;54.718;18.426;2023-04-15T04:08:11;27.10;;;16.50;;
77105;SDS011;66057;54.718;18.426;2023-04-15T04:10:41;25.70;;;17.90;;
77105;SDS011;66057;54.718;18.426;2023-04-15T04:13:06;33.83;;;17.00;;
77105;SDS011;66057;54.718;18.426;2023-04-15T04:15:32;25.35;;;16.00;;
77105;SDS011;66057;54.718;18.426;2023-04-15T04:17:58;32.92;;;16.27;;
77105;SDS011;66057;54.718;18.426;2023-04-15T04:20:24;21.25;;;13.30;;
77105;SDS011;66057;54.718;18.426;2023-04-15T04:22:49;23.90;;;15.20;;
77105;SDS011;66057;54.718;18.426;2023-04-15T04:25:15;27.77;;;14.57;;
77105;SDS011;66057;54.718;18.426;2023-04-15T04:27:41;23.15;;;15.07;;
77105;SDS011;66057;54.718;18.426;2023-04-15T04:30:07;26.15;;;15.38;;
77105;SDS011;66057;54.718;18.426;2023-04-15T04:32:32;23.98;;;14.88;;
77105;SDS011;66057;54.718;18.426;2023-04-15T04:34:58;24.48;;;14.48;;
77105;SDS011;66057;54.718;18.426;2023-04-15T04:37:24;23.45;;;15.00;;
77105;SDS011;66057;54.718;18.426;2023-04-15T04:39:50;24.90;;;14.68;;
77105;SDS011;66057;54.718;18.426;2023-04-15T04:42:15;26.38;;;14.90;;
77105;SDS011;66057;54.718;18.426;2023-04-15T04:44:41;20.75;;;12.07;;
77105;SDS011;66057;54.718;18.426;2023-04-15T04:47:06;21.35;;;14.45;;
77105;SDS011;66057;54.718;18.426;2023-04-15T04:49:32;20.92;;;12.23;;
77105;SDS011;66057;54.718;18.426;2023-04-15T04:51:58;21.98;;;14.65;;
77105;SDS011;66057;54.718;18.426;2023-04-15T04:54:24;24.92;;;15.02;;
77105;SDS011;66057;54.718;18.426;2023-04-15T04:56:50;28.67;;;15.57;;
77105;SDS011;66057;54.718;18.426;2023-04-15T04:59:33;23.02;;;14.88;;
77105;SDS011;66057;54.718;18.426;2023-04-15T05:02:03;23.50;;;14.43;;
77105;SDS011;66057;54.718;18.426;2023-04-15T05:04:29;25.50;;;15.98;;
77105;SDS011;66057;54.718;18.426;2023-04-15T05:06:57;25.42;;;15.85;;
77105;SDS011;66057;54.718;18.426;2023-04-15T05:09:23;23.77;;;15.55;;
77105;SDS011;66057;54.718;18.426;2023-04-15T05:11:49;26.20;;;14.93;;
77105;SDS011;66057;54.718;18.426;2023-04-15T05:14:15;20.83;;;14.70;;
77105;SDS011;66057;54.718;18.426;2023-04-15T05:16:40;24.40;;;15.55;;
77105;SDS011;66057;54.718;18.426;2023-04-15T05:19:06;21.55;;;14.95;;
77105;SDS011;66057;54.718;18.426;2023-04-15T05:21:32;21.50;;;15.23;;
77105;SDS011;66057;54.718;18.426;2023-04-15T05:23:58;23.10;;;15.13;;
77105;SDS011;66057;54.718;18.426;2023-04-15T05:26:24;22.80;;;15.80;;
77105;SDS011;66057;54.718;18.426;2023-04-15T05:31:19;27.83;;;15.23;;
77105;SDS011;66057;54.718;18.426;2023-04-15T05:33:46;20.60;;;13.90;;
77105;SDS011;66057;54.718;18.426;2023-04-15T05:36:11;24.10;;;14.82;;
77105;SDS011;66057;54.718;18.426;2023-04-15T05:38:37;23.85;;;13.77;;
77105;SDS011;66057;54.718;18.426;2023-04-15T05:41:03;22.48;;;12.70;;
77105;SDS011;66057;54.718;18.426;2023-04-15T05:43:31;23.88;;;14.30;;
77105;SDS011;66057;54.718;18.426;2023-04-15T05:45:57;27.65;;;14.93;;
77105;SDS011;66057;54.718;18.426;2023-04-15T05:48:23;19.13;;;12.32;;
77105;SDS011;66057;54.718;18.426;2023-04-15T05:50:48;18.90;;;11.30;;
77105;SDS011;66057;54.718;18.426;2023-04-15T05:53:14;22.55;;;13.23;;
77105;SDS011;66057;54.718;18.426;2023-04-15T05:55:40;21.05;;;14.10;;
77105;SDS011;66057;54.718;18.426;2023-04-15T05:58:05;22.35;;;11.05;;
77105;SDS011;66057;54.718;18.426;2023-04-15T06:00:31;20.50;;;14.18;;
77105;SDS011;66057;54.718;18.426;2023-04-15T06:02:57;19.15;;;11.27;;
77105;SDS011;66057;54.718;18.426;2023-04-15T06:05:23;21.67;;;11.63;;
77105;SDS011;66057;54.718;18.426;2023-04-15T06:07:49;19.38;;;11.90;;
77105;SDS011;66057;54.718;18.426;2023-04-15T06:10:14;17.73;;;10.45;;
77105;SDS011;66057;54.718;18.426;2023-04-15T06:12:40;20.73;;;13.00;;
77105;SDS011;66057;54.718;18.426;2023-04-15T06:15:07;17.83;;;11.10;;
77105;SDS011;66057;54.718;18.426;2023-04-15T06:17:34;17.00;;;11.65;;
77105;SDS011;66057;54.718;18.426;2023-04-15T06:22:27;20.23;;;11.77;;
77105;SDS011;66057;54.718;18.426;2023-04-15T06:24:52;21.08;;;12.35;;
77105;SDS011;66057;54.718;18.426;2023-04-15T06:27:18;26.10;;;13.20;;
77105;SDS011;66057;54.718;18.426;2023-04-15T06:29:44;23.05;;;13.07;;
77105;SDS011;66057;54.718;18.426;2023-04-15T06:32:10;18.52;;;12.80;;
77105;SDS011;66057;54.718;18.426;2023-04-15T06:34:36;20.25;;;13.13;;
77105;SDS011;66057;54.718;18.426;2023-04-15T06:37:02;17.65;;;10.85;;
77105;SDS011;66057;54.718;18.426;2023-04-15T06:39:27;21.63;;;12.63;;
77105;SDS011;66057;54.718;18.426;2023-04-15T06:41:53;20.88;;;12.80;;
77105;SDS011;66057;54.718;18.426;2023-04-15T06:44:19;19.95;;;11.98;;
77105;SDS011;66057;54.718;18.426;2023-04-15T06:46:44;21.88;;;12.50;;
77105;SDS011;66057;54.718;18.426;2023-04-15T06:49:10;17.20;;;11.18;;
77105;SDS011;66057;54.718;18.426;2023-04-15T06:51:36;21.65;;;11.68;;
77105;SDS011;66057;54.718;18.426;2023-04-15T06:54:02;21.33;;;13.00;;
77105;SDS011;66057;54.718;18.426;2023-04-15T06:56:30;18.67;;;12.70;;
77105;SDS011;66057;54.718;18.426;2023-04-15T07:03:48;23.25;;;11.75;;
77105;SDS011;66057;54.718;18.426;2023-04-15T07:06:13;25.70;;;12.50;;
77105;SDS011;66057;54.718;18.426;2023-04-15T07:08:39;22.00;;;12.15;;
77105;SDS011;66057;54.718;18.426;2023-04-15T07:11:04;16.35;;;11.35;;
77105;SDS011;66057;54.718;18.426;2023-04-15T07:13:30;16.25;;;10.43;;
77105;SDS011;66057;54.718;18.426;2023-04-15T07:15:56;20.77;;;11.18;;
77105;SDS011;66057;54.718;18.426;2023-04-15T07:18:22;19.48;;;11.45;;
77105;SDS011;66057;54.718;18.426;2023-04-15T07:20:48;17.38;;;10.77;;
77105;SDS011;66057;54.718;18.426;2023-04-15T07:23:14;16.80;;;10.57;;
77105;SDS011;66057;54.718;18.426;2023-04-15T07:25:39;19.92;;;11.20;;
77105;SDS011;66057;54.718;18.426;2023-04-15T07:28:05;18.27;;;10.43;;
77105;SDS011;66057;54.718;18.426;2023-04-15T07:30:31;13.82;;;9.82;;
77105;SDS011;66057;54.718;18.426;2023-04-15T07:32:57;15.63;;;9.88;;
77105;SDS011;66057;54.718;18.426;2023-04-15T07:35:23;18.00;;;10.68;;
77105;SDS011;66057;54.718;18.426;2023-04-15T07:37:50;21.23;;;11.13;;
77105;SDS011;66057;54.718;18.426;2023-04-15T07:40:16;20.05;;;10.73;;
77105;SDS011;66057;54.718;18.426;2023-04-15T07:42:42;18.67;;;10.75;;
77105;SDS011;66057;54.718;18.426;2023-04-15T07:45:08;15.80;;;11.23;;
77105;SDS011;66057;54.718;18.426;2023-04-15T07:47:34;14.18;;;10.63;;
77105;SDS011;66057;54.718;18.426;2023-04-15T07:50:00;14.20;;;9.88;;
77105;SDS011;66057;54.718;18.426;2023-04-15T07:52:29;20.25;;;10.77;;
77105;SDS011;66057;54.718;18.426;2023-04-15T07:54:55;15.10;;;10.50;;
77105;SDS011;66057;54.718;18.426;2023-04-15T07:57:21;17.00;;;10.60;;
77105;SDS011;66057;54.718;18.426;2023-04-15T07:59:46;19.42;;;11.35;;
77105;SDS011;66057;54.718;18.426;2023-04-15T08:02:12;17.55;;;9.98;;
77105;SDS011;66057;54.718;18.426;2023-04-15T08:04:38;20.50;;;11.30;;
77105;SDS011;66057;54.718;18.426;2023-04-15T08:07:04;20.13;;;10.57;;
77105;SDS011;66057;54.718;18.426;2023-04-15T08:09:30;17.33;;;9.68;;
77105;SDS011;66057;54.718;18.426;2023-04-15T08:11:56;15.52;;;9.90;;
77105;SDS011;66057;54.718;18.426;2023-04-15T08:14:21;17.02;;;10.40;;
77105;SDS011;66057;54.718;18.426;2023-04-15T08:16:48;12.95;;;8.88;;
77105;SDS011;66057;54.718;18.426;2023-04-15T08:19:14;15.23;;;9.18;;
77105;SDS011;66057;54.718;18.426;2023-04-15T08:21:40;16.30;;;10.02;;
77105;SDS011;66057;54.718;18.426;2023-04-15T08:24:06;17.30;;;9.18;;
77105;SDS011;66057;54.718;18.426;2023-04-15T08:26:32;16.17;;;9.82;;
77105;SDS011;66057;54.718;18.426;2023-04-15T08:28:58;19.60;;;9.95;;
77105;SDS011;66057;54.718;18.426;2023-04-15T08:31:25;15.65;;;10.30;;
77105;SDS011;66057;54.718;18.426;2023-04-15T08:33:51;16.13;;;9.35;;
77105;SDS011;66057;54.718;18.426;2023-04-15T08:36:16;17.20;;;9.65;;
77105;SDS011;66057;54.718;18.426;2023-04-15T08:38:43;14.88;;;10.13;;
77105;SDS011;66057;54.718;18.426;2023-04-15T08:41:11;15.35;;;10.27;;
77105;SDS011;66057;54.718;18.426;2023-04-15T08:43:49;14.40;;;9.75;;
77105;SDS011;66057;54.718;18.426;2023-04-15T08:46:21;15.90;;;10.68;;
77105;SDS011;66057;54.718;18.426;2023-04-15T08:48:47;19.42;;;10.55;;
77105;SDS011;66057;54.718;18.426;2023-04-15T08:51:14;16.38;;;9.88;;
77105;SDS011;66057;54.718;18.426;2023-04-15T08:53:42;17.23;;;10.82;;
77105;SDS011;66057;54.718;18.426;2023-04-15T08:56:08;14.93;;;9.82;;
77105;SDS011;66057;54.718;18.426;2023-04-15T08:58:36;15.13;;;9.95;;
77105;SDS011;66057;54.718;18.426;2023-04-15T09:01:02;14.50;;;8.52;;
77105;SDS011;66057;54.718;18.426;2023-04-15T09:03:28;15.98;;;10.32;;
77105;SDS011;66057;54.718;18.426;2023-04-15T09:05:55;13.90;;;10.23;;
77105;SDS011;66057;54.718;18.426;2023-04-15T09:08:21;15.35;;;9.38;;
77105;SDS011;66057;54.718;18.426;2023-04-15T09:10:47;14.18;;;10.05;;
77105;SDS011;66057;54.718;18.426;2023-04-15T09:13:12;18.08;;;10.70;;
77105;SDS011;66057;54.718;18.426;2023-04-15T09:15:38;17.05;;;10.20;;
77105;SDS011;66057;54.718;18.426;2023-04-15T09:18:04;14.70;;;10.10;;
77105;SDS011;66057;54.718;18.426;2023-04-15T09:20:37;19.58;;;10.27;;
77105;SDS011;66057;54.718;18.426;2023-04-15T09:23:11;13.63;;;9.70;;
77105;SDS011;66057;54.718;18.426;2023-04-15T09:25:39;14.85;;;10.35;;
77105;SDS011;66057;54.718;18.426;2023-04-15T09:28:08;15.10;;;10.18;;
77105;SDS011;66057;54.718;18.426;2023-04-15T09:30:34;16.20;;;10.27;;
77105;SDS011;66057;54.718;18.426;2023-04-15T09:33:00;15.60;;;10.20;;
77105;SDS011;66057;54.718;18.426;2023-04-15T09:35:27;16.65;;;10.32;;
77105;SDS011;66057;54.718;18.426;2023-04-15T09:37:53;15.80;;;9.15;;
77105;SDS011;66057;54.718;18.426;2023-04-15T09:40:34;15.63;;;9.98;;
77105;SDS011;66057;54.718;18.426;2023-04-15T09:43:06;16.48;;;10.55;;
77105;SDS011;66057;54.718;18.426;2023-04-15T09:45:33;14.65;;;9.68;;
77105;SDS011;66057;54.718;18.426;2023-04-15T09:48:19;15.10;;;9.57;;
77105;SDS011;66057;54.718;18.426;2023-04-15T09:50:47;15.68;;;9.52;;
77105;SDS011;66057;54.718;18.426;2023-04-15T09:53:17;18.10;;;10.30;;
77105;SDS011;66057;54.718;18.426;2023-04-15T09:55:54;13.40;;;9.40;;
77105;SDS011;66057;54.718;18.426;2023-04-15T09:58:22;16.50;;;10.35;;
77105;SDS011;66057;54.718;18.426;2023-04-15T10:00:50;14.40;;;9.50;;
77105;SDS011;66057;54.718;18.426;2023-04-15T10:03:20;16.63;;;9.40;;
77105;SDS011;66057;54.718;18.426;2023-04-15T10:05:49;17.42;;;9.98;;
77105;SDS011;66057;54.718;18.426;2023-04-15T10:08:17;14.23;;;9.57;;
77105;SDS011;66057;54.718;18.426;2023-04-15T10:10:46;18.95;;;10.25;;
77105;SDS011;66057;54.718;18.426;2023-04-15T10:13:17;18.08;;;9.13;;
77105;SDS011;66057;54.718;18.426;2023-04-15T10:15:47;16.52;;;10.57;;
77105;SDS011;66057;54.718;18.426;2023-04-15T10:18:16;17.55;;;10.02;;
77105;SDS011;66057;54.718;18.426;2023-04-15T10:20:44;17.13;;;9.70;;
77105;SDS011;66057;54.718;18.426;2023-04-15T10:23:11;17.45;;;10.18;;
77105;SDS011;66057;54.718;18.426;2023-04-15T10:25:36;17.30;;;9.70;;
77105;SDS011;66057;54.718;18.426;2023-04-15T10:28:03;16.55;;;9.73;;
77105;SDS011;66057;54.718;18.426;2023-04-15T10:30:32;18.15;;;9.65;;
77105;SDS011;66057;54.718;18.426;2023-04-15T10:32:58;16.65;;;9.52;;
77105;SDS011;66057;54.718;18.426;2023-04-15T10:35:27;17.10;;;10.20;;
77105;SDS011;66057;54.718;18.426;2023-04-15T10:37:53;15.55;;;8.68;;
77105;SDS011;66057;54.718;18.426;2023-04-15T10:40:23;15.05;;;9.73;;
77105;SDS011;66057;54.718;18.426;2023-04-15T10:43:04;17.65;;;9.55;;
77105;SDS011;66057;54.718;18.426;2023-04-15T10:45:34;15.32;;;10.55;;
77105;SDS011;66057;54.718;18.426;2023-04-15T10:48:01;16.60;;;10.25;;
77105;SDS011;66057;54.718;18.426;2023-04-15T10:50:32;16.90;;;8.90;;
77105;SDS011;66057;54.718;18.426;2023-04-15T10:52:58;16.58;;;9.55;;
77105;SDS011;66057;54.718;18.426;2023-04-15T10:55:30;12.75;;;8.27;;
77105;SDS011;66057;54.718;18.426;2023-04-15T10:57:58;15.77;;;9.45;;
77105;SDS011;66057;54.718;18.426;2023-04-15T11:00:29;16.05;;;9.93;;
77105;SDS011;66057;54.718;18.426;2023-04-15T11:08:08;18.05;;;9.80;;
77105;SDS011;66057;54.718;18.426;2023-04-15T11:13:04;19.35;;;10.40;;
77105;SDS011;66057;54.718;18.426;2023-04-15T11:15:42;15.38;;;9.50;;
77105;SDS011;66057;54.718;18.426;2023-04-15T11:23:05;19.25;;;11.20;;
77105;SDS011;66057;54.718;18.426;2023-04-15T11:25:31;13.32;;;9.57;;
77105;SDS011;66057;54.718;18.426;2023-04-15T11:27:59;16.25;;;9.95;;
77105;SDS011;66057;54.718;18.426;2023-04-15T11:30:30;17.20;;;10.23;;
77105;SDS011;66057;54.718;18.426;2023-04-15T11:32:58;16.70;;;9.88;;
77105;SDS011;66057;54.718;18.426;2023-04-15T11:35:31;17.85;;;9.93;;
77105;SDS011;66057;54.718;18.426;2023-04-15T11:37:57;18.35;;;10.48;;
77105;SDS011;66057;54.718;18.426;2023-04-15T11:40:28;15.68;;;9.68;;
77105;SDS011;66057;54.718;18.426;2023-04-15T11:48:18;16.42;;;9.75;;
77105;SDS011;66057;54.718;18.426;2023-04-15T11:50:50;19.10;;;10.30;;
77105;SDS011;66057;54.718;18.426;2023-04-15T11:53:21;14.50;;;10.60;;
77105;SDS011;66057;54.718;18.426;2023-04-15T11:55:48;17.73;;;10.45;;
77105;SDS011;66057;54.718;18.426;2023-04-15T11:58:17;19.23;;;10.18;;
77105;SDS011;66057;54.718;18.426;2023-04-15T12:00:48;16.70;;;9.50;;
77105;SDS011;66057;54.718;18.426;2023-04-15T12:03:24;14.13;;;10.05;;
77105;SDS011;66057;54.718;18.426;2023-04-15T12:19:25;15.45;;;9.35;;
77105;SDS011;66057;54.718;18.426;2023-04-15T12:21:52;16.92;;;9.30;;
77105;SDS011;66057;54.718;18.426;2023-04-15T12:24:31;16.20;;;9.10;;
77105;SDS011;66057;54.718;18.426;2023-04-15T12:27:02;16.83;;;9.77;;
77105;SDS011;66057;54.718;18.426;2023-04-15T12:29:29;15.00;;;8.95;;
77105;SDS011;66057;54.718;18.426;2023-04-15T12:31:57;13.93;;;8.70;;
77105;SDS011;66057;54.718;18.426;2023-04-15T12:34:31;15.25;;;9.75;;
77105;SDS011;66057;54.718;18.426;2023-04-15T12:37:06;13.27;;;9.40;;
77105;SDS011;66057;54.718;18.426;2023-04-15T12:39:34;15.75;;;9.63;;
77105;SDS011;66057;54.718;18.426;2023-04-15T12:42:01;15.90;;;10.10;;
77105;SDS011;66057;54.718;18.426;2023-04-15T12:44:28;16.45;;;9.68;;
77105;SDS011;66057;54.718;18.426;2023-04-15T12:46:54;17.17;;;11.23;;
77105;SDS011;66057;54.718;18.426;2023-04-15T12:49:20;16.08;;;9.27;;
77105;SDS011;66057;54.718;18.426;2023-04-15T12:51:50;15.10;;;8.88;;
77105;SDS011;66057;54.718;18.426;2023-04-15T12:54:18;16.15;;;10.00;;
77105;SDS011;66057;54.718;18.426;2023-04-15T12:56:44;17.55;;;9.43;;
77105;SDS011;66057;54.718;18.426;2023-04-15T12:59:11;15.02;;;9.27;;
77105;SDS011;66057;54.718;18.426;2023-04-15T13:01:38;16.63;;;8.18;;
77105;SDS011;66057;54.718;18.426;2023-04-15T13:04:04;14.50;;;9.05;;
77105;SDS011;66057;54.718;18.426;2023-04-15T13:06:31;15.43;;;9.90;;
77105;SDS011;66057;54.718;18.426;2023-04-15T13:09:00;16.48;;;9.15;;
77105;SDS011;66057;54.718;18.426;2023-04-15T13:14:02;17.95;;;9.45;;
77105;SDS011;66057;54.718;18.426;2023-04-15T13:16:29;12.32;;;7.90;;
77105;SDS011;66057;54.718;18.426;2023-04-15T13:18:56;15.00;;;9.45;;
77105;SDS011;66057;54.718;18.426;2023-04-15T13:21:24;14.07;;;8.55;;
77105;SDS011;66057;54.718;18.426;2023-04-15T13:23:49;17.83;;;9.80;;
77105;SDS011;66057;54.718;18.426;2023-04-15T13:26:16;18.40;;;9.68;;
77105;SDS011;66057;54.718;18.426;2023-04-15T13:28:42;13.05;;;9.30;;
77105;SDS011;66057;54.718;18.426;2023-04-15T13:31:08;12.15;;;9.50;;
77105;SDS011;66057;54.718;18.426;2023-04-15T13:33:33;16.48;;;9.30;;
77105;SDS011;66057;54.718;18.426;2023-04-15T13:35:59;14.95;;;8.73;;
77105;SDS011;66057;54.718;18.426;2023-04-15T13:38:25;16.40;;;10.23;;
77105;SDS011;66057;54.718;18.426;2023-04-15T13:40:51;15.93;;;9.32;;
77105;SDS011;66057;54.718;18.426;2023-04-15T13:43:16;12.27;;;8.25;;
77105;SDS011;66057;54.718;18.426;2023-04-15T13:45:42;11.50;;;8.75;;
77105;SDS011;66057;54.718;18.426;2023-04-15T13:48:08;14.18;;;8.90;;
77105;SDS011;66057;54.718;18.426;2023-04-15T13:50:35;13.68;;;8.75;;
77105;SDS011;66057;54.718;18.426;2023-04-15T13:53:01;12.70;;;8.40;;
77105;SDS011;66057;54.718;18.426;2023-04-15T13:55:27;17.88;;;9.07;;
77105;SDS011;66057;54.718;18.426;2023-04-15T13:57:53;19.98;;;9.65;;
77105;SDS011;66057;54.718;18.426;2023-04-15T14:00:19;15.32;;;9.70;;
77105;SDS011;66057;54.718;18.426;2023-04-15T14:02:44;12.40;;;8.45;;
77105;SDS011;66057;54.718;18.426;2023-04-15T14:05:10;12.27;;;8.75;;
77105;SDS011;66057;54.718;18.426;2023-04-15T14:07:36;15.40;;;9.32;;
77105;SDS011;66057;54.718;18.426;2023-04-15T14:10:02;17.42;;;9.48;;
77105;SDS011;66057;54.718;18.426;2023-04-15T14:12:28;21.20;;;11.63;;
77105;SDS011;66057;54.718;18.426;2023-04-15T14:14:53;16.02;;;9.63;;
77105;SDS011;66057;54.718;18.426;2023-04-15T14:17:19;16.48;;;8.60;;
77105;SDS011;66057;54.718;18.426;2023-04-15T14:19:45;21.05;;;10.35;;
77105;SDS011;66057;54.718;18.426;2023-04-15T14:22:11;15.05;;;8.55;;
77105;SDS011;66057;54.718;18.426;2023-04-15T14:24:36;16.25;;;9.48;;
77105;SDS011;66057;54.718;18.426;2023-04-15T14:27:02;14.48;;;8.63;;
77105;SDS011;66057;54.718;18.426;2023-04-15T14:29:28;13.93;;;8.90;;
77105;SDS011;66057;54.718;18.426;2023-04-15T14:31:54;15.63;;;9.90;;
77105;SDS011;66057;54.718;18.426;2023-04-15T14:34:21;15.07;;;9.18;;
77105;SDS011;66057;54.718;18.426;2023-04-15T14:36:49;13.82;;;9.60;;
77105;SDS011;66057;54.718;18.426;2023-04-15T14:39:16;17.13;;;9.75;;
77105;SDS011;66057;54.718;18.426;2023-04-15T14:41:41;20.15;;;10.05;;
77105;SDS011;66057;54.718;18.426;2023-04-15T14:44:07;15.25;;;9.25;;
77105;SDS011;66057;54.718;18.426;2023-04-15T14:46:33;13.18;;;9.05;;
77105;SDS011;66057;54.718;18.426;2023-04-15T14:48:59;14.95;;;8.10;;
77105;SDS011;66057;54.718;18.426;2023-04-15T14:51:25;12.68;;;9.23;;
77105;SDS011;66057;54.718;18.426;2023-04-15T14:53:51;19.20;;;9.32;;
77105;SDS011;66057;54.718;18.426;2023-04-15T14:56:16;14.98;;;9.75;;
77105;SDS011;66057;54.718;18.426;2023-04-15T14:58:42;17.00;;;10.80;;